sensor_id;sensor_type;location;lat;lon;timestamp;P1;durP1;ratioP1;P2;durP2;ratioP2
14754;SDS011;7469;50.906;6.952;2022-09-01T00:00:01;2.40;;;2.00;;
14754;SDS011;7469;50.906;6.952;2022-09-01T00:02:32;3.00;;;1.93;;
14754;SDS011;7469;50.906;6.952;2022-09-01T00:05:00;1.93;;;1.77;;
14754;SDS011;7469;50.906;6.952;2022-09-01T00:07:29;2.03;;;1.80;;
14754;SDS011;7469;50.906;6.952;2022-09-01T00:10:00;2.53;;;1.83;;
14754;SDS011;7469;50.906;6.952;2022-09-01T00:12:30;2.33;;;2.13;;
14754;SDS011;7469;50.906;6.952;2022-09-01T00:14:59;2.77;;;1.70;;
14754;SDS011;7469;50.906;6.952;2022-09-01T00:17:27;2.07;;;1.87;;
14754;SDS011;7469;50.906;6.952;2022-09-01T00:19:56;1.83;;;1.73;;
14754;SDS011;7469;50.906;6.952;2022-09-01T00:22:24;3.37;;;1.87;;
14754;SDS011;7469;50.906;6.952;2022-09-01T00:24:52;2.13;;;1.90;;
14754;SDS011;7469;50.906;6.952;2022-09-01T00:27:21;3.80;;;2.20;;
14754;SDS011;7469;50.906;6.952;2022-09-01T00:29:56;2.90;;;1.60;;
14754;SDS011;7469;50.906;6.952;2022-09-01T00:32:25;2.23;;;1.70;;
14754;SDS011;7469;50.906;6.952;2022-09-01T00:34:53;2.80;;;1.80;;
14754;SDS011;7469;50.906;6.952;2022-09-01T00:37:21;2.23;;;1.97;;
14754;SDS011;7469;50.906;6.952;2022-09-01T00:39:49;2.50;;;2.30;;
14754;SDS011;7469;50.906;6.952;2022-09-01T00:42:17;2.53;;;2.03;;
14754;SDS011;7469;50.906;6.952;2022-09-01T00:44:46;2.37;;;2.00;;
14754;SDS011;7469;50.906;6.952;2022-09-01T00:47:14;4.33;;;2.23;;
14754;SDS011;7469;50.906;6.952;2022-09-01T00:49:44;2.40;;;2.20;;
14754;SDS011;7469;50.906;6.952;2022-09-01T00:52:16;3.97;;;2.20;;
14754;SDS011;7469;50.906;6.952;2022-09-01T00:54:48;4.07;;;2.47;;
14754;SDS011;7469;50.906;6.952;2022-09-01T00:57:18;3.07;;;2.40;;
14754;SDS011;7469;50.906;6.952;2022-09-01T00:59:48;3.70;;;2.53;;
14754;SDS011;7469;50.906;6.952;2022-09-01T01:02:19;2.80;;;2.43;;
14754;SDS011;7469;50.906;6.952;2022-09-01T01:04:49;3.03;;;2.43;;
14754;SDS011;7469;50.906;6.952;2022-09-01T01:07:18;2.40;;;2.20;;
14754;SDS011;7469;50.906;6.952;2022-09-01T01:09:48;2.60;;;2.40;;
14754;SDS011;7469;50.906;6.952;2022-09-01T01:12:17;4.10;;;2.37;;
14754;SDS011;7469;50.906;6.952;2022-09-01T01:14:46;2.50;;;2.30;;
14754;SDS011;7469;50.906;6.952;2022-09-01T01:17:16;2.77;;;2.50;;
14754;SDS011;7469;50.906;6.952;2022-09-01T01:19:45;2.97;;;2.07;;
14754;SDS011;7469;50.906;6.952;2022-09-01T01:22:37;2.37;;;2.17;;
14754;SDS011;7469;50.906;6.952;2022-09-01T01:25:30;4.27;;;2.10;;
14754;SDS011;7469;50.906;6.952;2022-09-01T01:28:04;2.13;;;1.90;;
14754;SDS011;7469;50.906;6.952;2022-09-01T01:30:34;2.17;;;2.03;;
14754;SDS011;7469;50.906;6.952;2022-09-01T01:33:05;2.90;;;1.90;;
14754;SDS011;7469;50.906;6.952;2022-09-01T01:35:33;3.03;;;2.03;;
14754;SDS011;7469;50.906;6.952;2022-09-01T01:38:03;2.47;;;2.27;;
14754;SDS011;7469;50.906;6.952;2022-09-01T01:40:35;2.53;;;2.33;;
14754;SDS011;7469;50.906;6.952;2022-09-01T01:43:04;2.27;;;2.13;;
14754;SDS011;7469;50.906;6.952;2022-09-01T01:45:32;2.17;;;1.97;;
14754;SDS011;7469;50.906;6.952;2022-09-01T01:48:00;2.00;;;1.90;;
14754;SDS011;7469;50.906;6.952;2022-09-01T01:50:34;2.10;;;1.93;;
14754;SDS011;7469;50.906;6.952;2022-09-01T01:53:05;2.90;;;1.93;;
14754;SDS011;7469;50.906;6.952;2022-09-01T01:55:38;3.87;;;1.77;;
14754;SDS011;7469;50.906;6.952;2022-09-01T01:58:07;2.10;;;1.90;;
14754;SDS011;7469;50.906;6.952;2022-09-01T02:00:37;2.33;;;1.80;;
14754;SDS011;7469;50.906;6.952;2022-09-01T02:03:08;3.23;;;1.90;;
14754;SDS011;7469;50.906;6.952;2022-09-01T02:05:38;2.10;;;1.90;;
14754;SDS011;7469;50.906;6.952;2022-09-01T02:08:08;1.97;;;1.87;;
14754;SDS011;7469;50.906;6.952;2022-09-01T02:10:40;2.17;;;2.00;;
14754;SDS011;7469;50.906;6.952;2022-09-01T02:13:10;1.93;;;1.73;;
14754;SDS011;7469;50.906;6.952;2022-09-01T02:15:42;3.03;;;2.17;;
14754;SDS011;7469;50.906;6.952;2022-09-01T02:18:12;4.80;;;3.80;;
14754;SDS011;7469;50.906;6.952;2022-09-01T02:20:43;12.13;;;9.10;;
14754;SDS011;7469;50.906;6.952;2022-09-01T02:23:13;12.43;;;10.03;;
14754;SDS011;7469;50.906;6.952;2022-09-01T02:25:44;15.17;;;10.67;;
14754;SDS011;7469;50.906;6.952;2022-09-01T02:28:33;16.47;;;10.70;;
14754;SDS011;7469;50.906;6.952;2022-09-01T02:31:05;11.10;;;9.73;;
14754;SDS011;7469;50.906;6.952;2022-09-01T02:33:35;13.67;;;9.23;;
14754;SDS011;7469;50.906;6.952;2022-09-01T02:36:05;11.83;;;8.67;;
14754;SDS011;7469;50.906;6.952;2022-09-01T02:38:38;9.27;;;7.60;;
14754;SDS011;7469;50.906;6.952;2022-09-01T02:41:13;8.50;;;6.70;;
14754;SDS011;7469;50.906;6.952;2022-09-01T02:43:48;8.07;;;5.97;;
14754;SDS011;7469;50.906;6.952;2022-09-01T02:46:16;8.87;;;5.53;;
14754;SDS011;7469;50.906;6.952;2022-09-01T02:48:47;8.77;;;4.97;;
14754;SDS011;7469;50.906;6.952;2022-09-01T02:51:18;8.60;;;4.97;;
14754;SDS011;7469;50.906;6.952;2022-09-01T02:53:47;5.43;;;4.13;;
14754;SDS011;7469;50.906;6.952;2022-09-01T02:56:19;6.10;;;4.20;;
14754;SDS011;7469;50.906;6.952;2022-09-01T02:58:50;6.67;;;4.47;;
14754;SDS011;7469;50.906;6.952;2022-09-01T03:01:20;6.63;;;4.73;;
14754;SDS011;7469;50.906;6.952;2022-09-01T03:03:50;4.80;;;3.93;;
14754;SDS011;7469;50.906;6.952;2022-09-01T03:06:19;7.40;;;4.73;;
14754;SDS011;7469;50.906;6.952;2022-09-01T03:08:49;6.17;;;3.20;;
14754;SDS011;7469;50.906;6.952;2022-09-01T03:11:19;3.57;;;3.20;;
14754;SDS011;7469;50.906;6.952;2022-09-01T03:13:49;4.27;;;2.90;;
14754;SDS011;7469;50.906;6.952;2022-09-01T03:16:18;4.93;;;2.93;;
14754;SDS011;7469;50.906;6.952;2022-09-01T03:18:47;2.87;;;2.60;;
14754;SDS011;7469;50.906;6.952;2022-09-01T03:21:16;4.90;;;2.77;;
14754;SDS011;7469;50.906;6.952;2022-09-01T03:23:45;2.60;;;2.40;;
14754;SDS011;7469;50.906;6.952;2022-09-01T03:26:14;3.77;;;2.60;;
14754;SDS011;7469;50.906;6.952;2022-09-01T03:28:46;5.07;;;2.40;;
14754;SDS011;7469;50.906;6.952;2022-09-01T03:31:15;2.77;;;2.30;;
14754;SDS011;7469;50.906;6.952;2022-09-01T03:33:44;3.47;;;2.57;;
14754;SDS011;7469;50.906;6.952;2022-09-01T03:36:13;4.23;;;2.30;;
14754;SDS011;7469;50.906;6.952;2022-09-01T03:38:45;2.60;;;2.40;;
14754;SDS011;7469;50.906;6.952;2022-09-01T03:41:15;4.50;;;2.37;;
14754;SDS011;7469;50.906;6.952;2022-09-01T03:43:46;4.03;;;2.47;;
14754;SDS011;7469;50.906;6.952;2022-09-01T03:46:15;3.93;;;2.60;;
14754;SDS011;7469;50.906;6.952;2022-09-01T03:48:47;2.87;;;2.43;;
14754;SDS011;7469;50.906;6.952;2022-09-01T03:51:18;4.07;;;2.43;;
14754;SDS011;7469;50.906;6.952;2022-09-01T03:53:48;2.60;;;2.40;;
14754;SDS011;7469;50.906;6.952;2022-09-01T03:56:19;2.73;;;2.37;;
14754;SDS011;7469;50.906;6.952;2022-09-01T03:58:50;3.70;;;2.70;;
14754;SDS011;7469;50.906;6.952;2022-09-01T04:01:19;2.47;;;2.27;;
14754;SDS011;7469;50.906;6.952;2022-09-01T04:03:48;3.17;;;2.80;;
14754;SDS011;7469;50.906;6.952;2022-09-01T04:06:17;3.77;;;2.80;;
14754;SDS011;7469;50.906;6.952;2022-09-01T04:08:49;4.57;;;2.90;;
14754;SDS011;7469;50.906;6.952;2022-09-01T04:11:20;4.10;;;2.77;;
14754;SDS011;7469;50.906;6.952;2022-09-01T04:13:50;3.57;;;2.90;;
14754;SDS011;7469;50.906;6.952;2022-09-01T04:16:20;5.87;;;2.53;;
14754;SDS011;7469;50.906;6.952;2022-09-01T04:19:07;3.80;;;2.60;;
14754;SDS011;7469;50.906;6.952;2022-09-01T04:21:45;3.10;;;2.77;;
14754;SDS011;7469;50.906;6.952;2022-09-01T04:24:15;5.83;;;3.10;;
14754;SDS011;7469;50.906;6.952;2022-09-01T04:26:45;3.17;;;2.60;;
14754;SDS011;7469;50.906;6.952;2022-09-01T04:29:16;3.07;;;2.80;;
14754;SDS011;7469;50.906;6.952;2022-09-01T04:31:45;2.80;;;2.50;;
14754;SDS011;7469;50.906;6.952;2022-09-01T04:34:17;4.83;;;2.77;;
14754;SDS011;7469;50.906;6.952;2022-09-01T04:36:45;3.70;;;3.03;;
14754;SDS011;7469;50.906;6.952;2022-09-01T04:39:19;3.57;;;2.70;;
14754;SDS011;7469;50.906;6.952;2022-09-01T04:41:48;4.10;;;3.10;;
14754;SDS011;7469;50.906;6.952;2022-09-01T04:44:17;3.97;;;3.03;;
14754;SDS011;7469;50.906;6.952;2022-09-01T04:46:46;4.23;;;2.87;;
14754;SDS011;7469;50.906;6.952;2022-09-01T04:49:17;5.33;;;2.97;;
14754;SDS011;7469;50.906;6.952;2022-09-01T04:51:48;5.00;;;3.10;;
14754;SDS011;7469;50.906;6.952;2022-09-01T04:54:19;3.23;;;2.80;;
14754;SDS011;7469;50.906;6.952;2022-09-01T04:56:49;3.43;;;3.10;;
14754;SDS011;7469;50.906;6.952;2022-09-01T04:59:21;5.40;;;3.57;;
14754;SDS011;7469;50.906;6.952;2022-09-01T05:01:52;5.57;;;3.70;;
14754;SDS011;7469;50.906;6.952;2022-09-01T05:04:25;5.23;;;4.40;;
14754;SDS011;7469;50.906;6.952;2022-09-01T05:06:54;6.00;;;3.27;;
14754;SDS011;7469;50.906;6.952;2022-09-01T05:09:25;5.13;;;3.40;;
14754;SDS011;7469;50.906;6.952;2022-09-01T05:11:55;6.70;;;3.23;;
14754;SDS011;7469;50.906;6.952;2022-09-01T05:14:28;5.63;;;3.00;;
14754;SDS011;7469;50.906;6.952;2022-09-01T05:16:56;7.13;;;3.70;;
14754;SDS011;7469;50.906;6.952;2022-09-01T05:19:27;7.63;;;3.77;;
14754;SDS011;7469;50.906;6.952;2022-09-01T05:21:56;9.07;;;3.70;;
14754;SDS011;7469;50.906;6.952;2022-09-01T05:24:25;10.27;;;3.93;;
14754;SDS011;7469;50.906;6.952;2022-09-01T05:26:56;10.33;;;3.53;;
14754;SDS011;7469;50.906;6.952;2022-09-01T05:29:25;6.63;;;3.37;;
14754;SDS011;7469;50.906;6.952;2022-09-01T05:31:56;3.80;;;3.30;;
14754;SDS011;7469;50.906;6.952;2022-09-01T05:34:25;8.57;;;3.53;;
14754;SDS011;7469;50.906;6.952;2022-09-01T05:36:56;8.07;;;4.10;;
14754;SDS011;7469;50.906;6.952;2022-09-01T05:39:26;6.37;;;3.50;;
14754;SDS011;7469;50.906;6.952;2022-09-01T05:41:54;11.77;;;3.47;;
14754;SDS011;7469;50.906;6.952;2022-09-01T05:44:22;26.50;;;4.73;;
14754;SDS011;7469;50.906;6.952;2022-09-01T05:46:50;14.30;;;3.50;;
14754;SDS011;7469;50.906;6.952;2022-09-01T05:49:20;9.17;;;3.63;;
14754;SDS011;7469;50.906;6.952;2022-09-01T05:51:49;9.53;;;3.30;;
14754;SDS011;7469;50.906;6.952;2022-09-01T05:54:22;9.73;;;3.40;;
14754;SDS011;7469;50.906;6.952;2022-09-01T05:56:53;7.87;;;3.17;;
14754;SDS011;7469;50.906;6.952;2022-09-01T05:59:22;7.87;;;3.00;;
14754;SDS011;7469;50.906;6.952;2022-09-01T06:01:51;5.43;;;2.80;;
14754;SDS011;7469;50.906;6.952;2022-09-01T06:04:21;7.20;;;3.00;;
14754;SDS011;7469;50.906;6.952;2022-09-01T06:06:51;8.07;;;3.00;;
14754;SDS011;7469;50.906;6.952;2022-09-01T06:09:35;5.67;;;2.80;;
14754;SDS011;7469;50.906;6.952;2022-09-01T06:12:04;6.97;;;2.70;;
14754;SDS011;7469;50.906;6.952;2022-09-01T06:14:33;10.10;;;3.20;;
14754;SDS011;7469;50.906;6.952;2022-09-01T06:17:01;6.33;;;2.90;;
14754;SDS011;7469;50.906;6.952;2022-09-01T06:19:31;5.20;;;2.80;;
14754;SDS011;7469;50.906;6.952;2022-09-01T06:22:02;4.17;;;2.53;;
14754;SDS011;7469;50.906;6.952;2022-09-01T06:24:31;6.87;;;2.33;;
14754;SDS011;7469;50.906;6.952;2022-09-01T06:26:59;3.63;;;2.33;;
14754;SDS011;7469;50.906;6.952;2022-09-01T06:29:27;2.57;;;2.00;;
14754;SDS011;7469;50.906;6.952;2022-09-01T06:31:56;3.63;;;2.50;;
14754;SDS011;7469;50.906;6.952;2022-09-01T06:34:27;3.43;;;2.33;;
14754;SDS011;7469;50.906;6.952;2022-09-01T06:37:00;2.30;;;2.03;;
14754;SDS011;7469;50.906;6.952;2022-09-01T06:39:28;4.40;;;2.33;;
14754;SDS011;7469;50.906;6.952;2022-09-01T06:41:56;3.43;;;2.00;;
14754;SDS011;7469;50.906;6.952;2022-09-01T06:44:26;3.23;;;2.10;;
14754;SDS011;7469;50.906;6.952;2022-09-01T06:46:57;4.13;;;2.00;;
14754;SDS011;7469;50.906;6.952;2022-09-01T06:49:26;5.23;;;2.30;;
14754;SDS011;7469;50.906;6.952;2022-09-01T06:52:01;2.13;;;1.80;;
14754;SDS011;7469;50.906;6.952;2022-09-01T06:54:31;2.73;;;2.20;;
14754;SDS011;7469;50.906;6.952;2022-09-01T06:57:01;3.23;;;2.00;;
14754;SDS011;7469;50.906;6.952;2022-09-01T06:59:49;2.20;;;2.00;;
14754;SDS011;7469;50.906;6.952;2022-09-01T07:02:19;3.67;;;1.90;;
14754;SDS011;7469;50.906;6.952;2022-09-01T07:05:07;2.63;;;2.10;;
14754;SDS011;7469;50.906;6.952;2022-09-01T07:07:57;2.37;;;1.87;;
14754;SDS011;7469;50.906;6.952;2022-09-01T07:10:32;3.00;;;2.00;;
14754;SDS011;7469;50.906;6.952;2022-09-01T07:13:21;2.70;;;2.20;;
14754;SDS011;7469;50.906;6.952;2022-09-01T07:15:52;3.60;;;1.90;;
14754;SDS011;7469;50.906;6.952;2022-09-01T07:18:40;3.27;;;1.90;;
14754;SDS011;7469;50.906;6.952;2022-09-01T07:21:23;5.33;;;1.97;;
14754;SDS011;7469;50.906;6.952;2022-09-01T07:24:14;2.20;;;1.60;;
14754;SDS011;7469;50.906;6.952;2022-09-01T07:26:43;4.40;;;1.77;;
14754;SDS011;7469;50.906;6.952;2022-09-01T07:29:15;2.40;;;1.80;;
14754;SDS011;7469;50.906;6.952;2022-09-01T07:31:47;3.33;;;1.60;;
14754;SDS011;7469;50.906;6.952;2022-09-01T07:34:35;4.13;;;1.40;;
14754;SDS011;7469;50.906;6.952;2022-09-01T07:37:05;6.37;;;1.70;;
14754;SDS011;7469;50.906;6.952;2022-09-01T07:39:54;7.97;;;1.73;;
14754;SDS011;7469;50.906;6.952;2022-09-01T07:42:43;5.50;;;1.77;;
14754;SDS011;7469;50.906;6.952;2022-09-01T07:45:28;6.40;;;3.43;;
14754;SDS011;7469;50.906;6.952;2022-09-01T07:47:56;10.83;;;2.40;;
14754;SDS011;7469;50.906;6.952;2022-09-01T07:50:28;4.40;;;2.00;;
14754;SDS011;7469;50.906;6.952;2022-09-01T07:53:16;5.33;;;1.63;;
14754;SDS011;7469;50.906;6.952;2022-09-01T07:55:49;3.50;;;1.80;;
14754;SDS011;7469;50.906;6.952;2022-09-01T07:58:20;3.03;;;1.73;;
14754;SDS011;7469;50.906;6.952;2022-09-01T08:00:49;5.27;;;2.10;;
14754;SDS011;7469;50.906;6.952;2022-09-01T08:03:19;3.33;;;1.60;;
14754;SDS011;7469;50.906;6.952;2022-09-01T08:05:49;4.30;;;1.80;;
14754;SDS011;7469;50.906;6.952;2022-09-01T08:08:23;4.47;;;1.50;;
14754;SDS011;7469;50.906;6.952;2022-09-01T08:10:55;6.47;;;1.70;;
14754;SDS011;7469;50.906;6.952;2022-09-01T08:13:31;2.40;;;1.87;;
14754;SDS011;7469;50.906;6.952;2022-09-01T08:16:06;4.13;;;1.47;;
14754;SDS011;7469;50.906;6.952;2022-09-01T08:18:43;3.93;;;1.50;;
14754;SDS011;7469;50.906;6.952;2022-09-01T08:21:15;3.63;;;2.13;;
14754;SDS011;7469;50.906;6.952;2022-09-01T08:23:44;4.27;;;1.90;;
14754;SDS011;7469;50.906;6.952;2022-09-01T08:26:16;3.30;;;2.17;;
14754;SDS011;7469;50.906;6.952;2022-09-01T08:28:45;3.30;;;1.80;;
14754;SDS011;7469;50.906;6.952;2022-09-01T08:31:21;4.93;;;1.90;;
14754;SDS011;7469;50.906;6.952;2022-09-01T08:33:56;1.97;;;1.53;;
14754;SDS011;7469;50.906;6.952;2022-09-01T08:36:25;2.37;;;1.70;;
14754;SDS011;7469;50.906;6.952;2022-09-01T08:38:53;1.63;;;1.53;;
14754;SDS011;7469;50.906;6.952;2022-09-01T08:41:25;5.20;;;1.57;;
14754;SDS011;7469;50.906;6.952;2022-09-01T08:44:07;2.30;;;1.67;;
14754;SDS011;7469;50.906;6.952;2022-09-01T08:46:43;3.90;;;1.97;;
14754;SDS011;7469;50.906;6.952;2022-09-01T08:49:13;1.60;;;1.50;;
14754;SDS011;7469;50.906;6.952;2022-09-01T08:51:52;4.83;;;1.73;;
14754;SDS011;7469;50.906;6.952;2022-09-01T08:54:28;4.47;;;1.60;;
14754;SDS011;7469;50.906;6.952;2022-09-01T08:57:04;2.03;;;1.67;;
14754;SDS011;7469;50.906;6.952;2022-09-01T08:59:34;2.33;;;1.30;;
14754;SDS011;7469;50.906;6.952;2022-09-01T09:02:05;5.00;;;2.00;;
14754;SDS011;7469;50.906;6.952;2022-09-01T09:04:52;3.07;;;1.40;;
14754;SDS011;7469;50.906;6.952;2022-09-01T09:07:31;4.90;;;1.70;;
14754;SDS011;7469;50.906;6.952;2022-09-01T09:10:13;4.00;;;1.63;;
14754;SDS011;7469;50.906;6.952;2022-09-01T09:12:52;3.60;;;1.17;;
14754;SDS011;7469;50.906;6.952;2022-09-01T09:15:31;2.47;;;1.43;;
14754;SDS011;7469;50.906;6.952;2022-09-01T09:18:08;1.87;;;1.47;;
14754;SDS011;7469;50.906;6.952;2022-09-01T09:21:05;2.90;;;1.50;;
14754;SDS011;7469;50.906;6.952;2022-09-01T09:23:38;4.40;;;1.37;;
14754;SDS011;7469;50.906;6.952;2022-09-01T09:26:11;2.87;;;1.50;;
14754;SDS011;7469;50.906;6.952;2022-09-01T09:28:48;3.93;;;1.30;;
14754;SDS011;7469;50.906;6.952;2022-09-01T09:31:30;1.47;;;1.30;;
14754;SDS011;7469;50.906;6.952;2022-09-01T09:34:02;1.67;;;1.57;;
14754;SDS011;7469;50.906;6.952;2022-09-01T09:36:31;4.00;;;1.37;;
14754;SDS011;7469;50.906;6.952;2022-09-01T09:39:05;3.63;;;1.37;;
14754;SDS011;7469;50.906;6.952;2022-09-01T09:41:36;1.43;;;1.17;;
14754;SDS011;7469;50.906;6.952;2022-09-01T09:44:15;2.30;;;1.10;;
14754;SDS011;7469;50.906;6.952;2022-09-01T09:46:48;2.80;;;1.30;;
14754;SDS011;7469;50.906;6.952;2022-09-01T09:49:18;4.27;;;1.60;;
14754;SDS011;7469;50.906;6.952;2022-09-01T09:52:12;1.23;;;1.13;;
14754;SDS011;7469;50.906;6.952;2022-09-01T09:57:30;1.48;;;1.38;;
14754;SDS011;7469;50.906;6.952;2022-09-01T10:00:06;1.55;;;1.33;;
14754;SDS011;7469;50.906;6.952;2022-09-01T10:02:52;2.30;;;1.50;;
14754;SDS011;7469;50.906;6.952;2022-09-01T10:05:28;4.68;;;1.45;;
14754;SDS011;7469;50.906;6.952;2022-09-01T10:08:02;1.55;;;1.40;;
14754;SDS011;7469;50.906;6.952;2022-09-01T10:10:36;3.25;;;1.60;;
14754;SDS011;7469;50.906;6.952;2022-09-01T10:13:07;4.35;;;1.38;;
14754;SDS011;7469;50.906;6.952;2022-09-01T10:15:40;2.25;;;1.52;;
14754;SDS011;7469;50.906;6.952;2022-09-01T10:18:17;2.10;;;1.40;;
14754;SDS011;7469;50.906;6.952;2022-09-01T10:20:55;2.55;;;1.58;;
14754;SDS011;7469;50.906;6.952;2022-09-01T10:23:27;1.58;;;1.48;;
14754;SDS011;7469;50.906;6.952;2022-09-01T10:25:59;5.10;;;1.65;;
14754;SDS011;7469;50.906;6.952;2022-09-01T10:28:35;2.28;;;1.45;;
14754;SDS011;7469;50.906;6.952;2022-09-01T10:31:16;2.63;;;1.65;;
14754;SDS011;7469;50.906;6.952;2022-09-01T10:33:45;3.97;;;1.15;;
14754;SDS011;7469;50.906;6.952;2022-09-01T10:36:13;5.00;;;1.40;;
14754;SDS011;7469;50.906;6.952;2022-09-01T10:38:43;1.42;;;1.33;;
14754;SDS011;7469;50.906;6.952;2022-09-01T10:44:25;2.70;;;1.63;;
14754;SDS011;7469;50.906;6.952;2022-09-01T10:46:59;3.78;;;1.65;;
14754;SDS011;7469;50.906;6.952;2022-09-01T10:52:52;1.52;;;1.30;;
14754;SDS011;7469;50.906;6.952;2022-09-01T10:55:34;2.35;;;1.70;;
14754;SDS011;7469;50.906;6.952;2022-09-01T10:58:20;1.58;;;1.48;;
14754;SDS011;7469;50.906;6.952;2022-09-01T11:05:11;2.80;;;1.75;;
14754;SDS011;7469;50.906;6.952;2022-09-01T11:07:43;1.45;;;1.35;;
14754;SDS011;7469;50.906;6.952;2022-09-01T11:10:47;1.70;;;1.42;;
14754;SDS011;7469;50.906;6.952;2022-09-01T11:16:28;4.68;;;1.80;;
14754;SDS011;7469;50.906;6.952;2022-09-01T11:19:23;2.50;;;1.50;;
14754;SDS011;7469;50.906;6.952;2022-09-01T11:22:15;1.42;;;1.35;;
14754;SDS011;7469;50.906;6.952;2022-09-01T11:25:05;1.90;;;1.70;;
14754;SDS011;7469;50.906;6.952;2022-09-01T11:27:55;1.90;;;1.80;;
14754;SDS011;7469;50.906;6.952;2022-09-01T11:30:59;1.50;;;1.40;;
14754;SDS011;7469;50.906;6.952;2022-09-01T11:33:41;2.10;;;1.30;;
14754;SDS011;7469;50.906;6.952;2022-09-01T11:36:23;6.30;;;1.60;;
14754;SDS011;7469;50.906;6.952;2022-09-01T11:38:57;2.53;;;1.60;;
14754;SDS011;7469;50.906;6.952;2022-09-01T11:41:32;1.70;;;1.60;;
14754;SDS011;7469;50.906;6.952;2022-09-01T11:44:10;1.60;;;1.50;;
14754;SDS011;7469;50.906;6.952;2022-09-01T11:46:42;2.10;;;1.60;;
14754;SDS011;7469;50.906;6.952;2022-09-01T11:49:21;2.03;;;1.50;;
14754;SDS011;7469;50.906;6.952;2022-09-01T11:51:56;3.73;;;2.07;;
14754;SDS011;7469;50.906;6.952;2022-09-01T11:54:26;7.30;;;2.20;;
14754;SDS011;7469;50.906;6.952;2022-09-01T11:56:56;4.10;;;1.63;;
14754;SDS011;7469;50.906;6.952;2022-09-01T11:59:31;4.70;;;1.80;;
14754;SDS011;7469;50.906;6.952;2022-09-01T12:02:02;2.53;;;1.90;;
14754;SDS011;7469;50.906;6.952;2022-09-01T12:04:31;4.23;;;1.60;;
14754;SDS011;7469;50.906;6.952;2022-09-01T12:07:06;1.93;;;1.63;;
14754;SDS011;7469;50.906;6.952;2022-09-01T12:09:37;3.87;;;1.70;;
14754;SDS011;7469;50.906;6.952;2022-09-01T12:15:03;5.17;;;1.63;;
14754;SDS011;7469;50.906;6.952;2022-09-01T12:17:35;6.10;;;2.10;;
14754;SDS011;7469;50.906;6.952;2022-09-01T12:22:57;3.50;;;1.90;;
14754;SDS011;7469;50.906;6.952;2022-09-01T12:25:28;3.00;;;1.57;;
14754;SDS011;7469;50.906;6.952;2022-09-01T12:27:58;1.73;;;1.63;;
14754;SDS011;7469;50.906;6.952;2022-09-01T12:30:26;2.30;;;2.10;;
14754;SDS011;7469;50.906;6.952;2022-09-01T12:32:56;5.47;;;1.90;;
14754;SDS011;7469;50.906;6.952;2022-09-01T12:35:46;2.77;;;2.33;;
14754;SDS011;7469;50.906;6.952;2022-09-01T12:38:15;3.57;;;1.97;;
14754;SDS011;7469;50.906;6.952;2022-09-01T12:40:51;2.30;;;2.07;;
14754;SDS011;7469;50.906;6.952;2022-09-01T12:43:28;3.97;;;1.90;;
14754;SDS011;7469;50.906;6.952;2022-09-01T12:45:59;3.17;;;1.90;;
14754;SDS011;7469;50.906;6.952;2022-09-01T12:48:32;2.60;;;2.03;;
14754;SDS011;7469;50.906;6.952;2022-09-01T12:51:02;3.53;;;2.00;;
14754;SDS011;7469;50.906;6.952;2022-09-01T12:53:34;5.90;;;1.80;;
14754;SDS011;7469;50.906;6.952;2022-09-01T12:56:15;2.70;;;1.90;;
14754;SDS011;7469;50.906;6.952;2022-09-01T12:58:46;3.73;;;2.03;;
14754;SDS011;7469;50.906;6.952;2022-09-01T13:01:25;3.27;;;1.70;;
14754;SDS011;7469;50.906;6.952;2022-09-01T13:06:51;1.90;;;1.80;;
14754;SDS011;7469;50.906;6.952;2022-09-01T13:09:19;3.07;;;1.60;;
14754;SDS011;7469;50.906;6.952;2022-09-01T13:11:47;1.97;;;1.73;;
14754;SDS011;7469;50.906;6.952;2022-09-01T13:14:33;3.10;;;1.80;;
14754;SDS011;7469;50.906;6.952;2022-09-01T13:17:01;2.50;;;1.97;;
14754;SDS011;7469;50.906;6.952;2022-09-01T13:19:30;5.17;;;2.10;;
14754;SDS011;7469;50.906;6.952;2022-09-01T13:21:58;4.30;;;1.90;;
14754;SDS011;7469;50.906;6.952;2022-09-01T13:24:27;6.07;;;2.20;;
14754;SDS011;7469;50.906;6.952;2022-09-01T13:26:57;6.10;;;1.90;;
14754;SDS011;7469;50.906;6.952;2022-09-01T13:29:45;6.20;;;2.13;;
14754;SDS011;7469;50.906;6.952;2022-09-01T13:32:13;5.37;;;2.03;;
14754;SDS011;7469;50.906;6.952;2022-09-01T13:34:46;10.83;;;2.77;;
14754;SDS011;7469;50.906;6.952;2022-09-01T13:37:17;10.03;;;2.30;;
14754;SDS011;7469;50.906;6.952;2022-09-01T13:39:45;3.63;;;1.90;;
14754;SDS011;7469;50.906;6.952;2022-09-01T13:42:14;5.40;;;1.90;;
14754;SDS011;7469;50.906;6.952;2022-09-01T13:44:42;3.63;;;1.90;;
14754;SDS011;7469;50.906;6.952;2022-09-01T13:47:16;3.53;;;2.00;;
14754;SDS011;7469;50.906;6.952;2022-09-01T13:50:06;3.00;;;1.57;;
14754;SDS011;7469;50.906;6.952;2022-09-01T13:52:39;6.93;;;2.33;;
14754;SDS011;7469;50.906;6.952;2022-09-01T13:55:10;8.07;;;1.93;;
14754;SDS011;7469;50.906;6.952;2022-09-01T13:57:41;1.70;;;1.60;;
14754;SDS011;7469;50.906;6.952;2022-09-01T14:00:10;3.00;;;2.00;;
14754;SDS011;7469;50.906;6.952;2022-09-01T14:02:42;4.17;;;2.00;;
14754;SDS011;7469;50.906;6.952;2022-09-01T14:05:15;3.23;;;1.97;;
14754;SDS011;7469;50.906;6.952;2022-09-01T14:07:45;9.63;;;2.30;;
14754;SDS011;7469;50.906;6.952;2022-09-01T14:10:14;4.50;;;2.10;;
14754;SDS011;7469;50.906;6.952;2022-09-01T14:12:43;3.20;;;2.20;;
14754;SDS011;7469;50.906;6.952;2022-09-01T14:15:14;2.10;;;1.60;;
14754;SDS011;7469;50.906;6.952;2022-09-01T14:17:51;4.80;;;1.80;;
14754;SDS011;7469;50.906;6.952;2022-09-01T14:20:24;2.00;;;1.80;;
14754;SDS011;7469;50.906;6.952;2022-09-01T14:22:56;3.33;;;1.77;;
14754;SDS011;7469;50.906;6.952;2022-09-01T14:25:25;2.20;;;1.83;;
14754;SDS011;7469;50.906;6.952;2022-09-01T14:27:53;2.27;;;1.80;;
14754;SDS011;7469;50.906;6.952;2022-09-01T14:30:23;5.60;;;2.10;;
14754;SDS011;7469;50.906;6.952;2022-09-01T14:32:57;1.80;;;1.70;;
14754;SDS011;7469;50.906;6.952;2022-09-01T14:35:27;2.63;;;2.07;;
14754;SDS011;7469;50.906;6.952;2022-09-01T14:37:59;1.73;;;1.63;;
14754;SDS011;7469;50.906;6.952;2022-09-01T14:40:28;5.10;;;2.00;;
14754;SDS011;7469;50.906;6.952;2022-09-01T14:42:56;2.13;;;1.87;;
14754;SDS011;7469;50.906;6.952;2022-09-01T14:45:24;2.33;;;1.73;;
14754;SDS011;7469;50.906;6.952;2022-09-01T14:47:54;6.20;;;2.00;;
14754;SDS011;7469;50.906;6.952;2022-09-01T14:50:28;2.87;;;1.77;;
14754;SDS011;7469;50.906;6.952;2022-09-01T14:52:59;2.43;;;1.47;;
14754;SDS011;7469;50.906;6.952;2022-09-01T14:55:28;2.40;;;1.53;;
14754;SDS011;7469;50.906;6.952;2022-09-01T14:57:58;5.40;;;1.87;;
14754;SDS011;7469;50.906;6.952;2022-09-01T15:00:27;2.00;;;1.90;;
14754;SDS011;7469;50.906;6.952;2022-09-01T15:02:56;3.03;;;1.73;;
14754;SDS011;7469;50.906;6.952;2022-09-01T15:05:25;2.80;;;1.80;;
14754;SDS011;7469;50.906;6.952;2022-09-01T15:07:54;3.73;;;2.00;;
14754;SDS011;7469;50.906;6.952;2022-09-01T15:10:24;1.87;;;1.73;;
14754;SDS011;7469;50.906;6.952;2022-09-01T15:12:54;4.57;;;1.83;;
14754;SDS011;7469;50.906;6.952;2022-09-01T15:15:23;4.07;;;1.60;;
14754;SDS011;7469;50.906;6.952;2022-09-01T15:17:53;2.10;;;1.70;;
14754;SDS011;7469;50.906;6.952;2022-09-01T15:20:22;2.20;;;2.00;;
14754;SDS011;7469;50.906;6.952;2022-09-01T15:23:09;4.20;;;1.90;;
14754;SDS011;7469;50.906;6.952;2022-09-01T15:25:38;1.87;;;1.70;;
14754;SDS011;7469;50.906;6.952;2022-09-01T15:28:05;3.83;;;1.90;;
14754;SDS011;7469;50.906;6.952;2022-09-01T15:30:34;3.60;;;2.20;;
14754;SDS011;7469;50.906;6.952;2022-09-01T15:33:05;8.63;;;2.03;;
14754;SDS011;7469;50.906;6.952;2022-09-01T15:35:40;6.83;;;1.93;;
14754;SDS011;7469;50.906;6.952;2022-09-01T15:38:10;4.00;;;1.73;;
14754;SDS011;7469;50.906;6.952;2022-09-01T15:40:43;2.20;;;2.00;;
14754;SDS011;7469;50.906;6.952;2022-09-01T15:43:22;5.03;;;1.80;;
14754;SDS011;7469;50.906;6.952;2022-09-01T15:45:50;4.53;;;1.90;;
14754;SDS011;7469;50.906;6.952;2022-09-01T15:48:18;3.37;;;1.83;;
14754;SDS011;7469;50.906;6.952;2022-09-01T15:50:46;1.83;;;1.73;;
14754;SDS011;7469;50.906;6.952;2022-09-01T15:53:15;2.50;;;1.70;;
14754;SDS011;7469;50.906;6.952;2022-09-01T15:55:45;1.97;;;1.83;;
14754;SDS011;7469;50.906;6.952;2022-09-01T15:58:15;3.47;;;1.60;;